createdAt,value
2019-01-27T00:01:41.073Z,10.80
2019-01-27T00:04:27.847Z,11.40
2019-01-27T00:07:14.707Z,10.67
2019-01-27T00:09:42.075Z,10.33
2019-01-27T00:12:09.612Z,10.60
2019-01-27T00:14:56.150Z,10.40
2019-01-27T00:17:42.765Z,9.90
2019-01-27T00:20:29.270Z,10.10
2019-01-27T00:23:16.010Z,9.40
2019-01-27T00:26:02.780Z,10.03
2019-01-27T00:28:49.293Z,9.87
2019-01-27T00:31:29.197Z,9.73
2019-01-27T00:34:09.346Z,9.70
2019-01-27T00:36:48.540Z,9.50
2019-01-27T00:39:28.798Z,9.90
2019-01-27T00:42:08.703Z,9.80
2019-01-27T00:44:48.050Z,9.03
2019-01-27T00:47:27.222Z,10.17
2019-01-27T00:50:07.486Z,9.40
2019-01-27T00:52:47.165Z,8.20
2019-01-27T00:55:27.184Z,8.73
2019-01-27T00:58:06.521Z,8.80
2019-01-27T01:00:46.428Z,9.03
2019-01-27T01:03:13.535Z,9.27
2019-01-27T01:06:00.053Z,9.07
2019-01-27T01:08:46.567Z,8.63
2019-01-27T01:11:33.053Z,8.73
2019-01-27T01:14:19.556Z,7.90
2019-01-27T01:17:06.120Z,9.00
2019-01-27T01:19:52.787Z,8.23
2019-01-27T01:22:39.417Z,8.20
2019-01-27T01:25:25.903Z,8.50
2019-01-27T01:28:12.458Z,8.90
2019-01-27T01:30:52.302Z,9.10
2019-01-27T01:33:32.255Z,8.23
2019-01-27T01:36:11.616Z,8.93
2019-01-27T01:38:51.685Z,8.43
2019-01-27T01:41:18.643Z,9.03
2019-01-27T01:44:05.202Z,8.77
2019-01-27T01:46:51.626Z,8.87
2019-01-27T01:49:38.132Z,8.67
2019-01-27T01:52:24.620Z,8.90
2019-01-27T01:55:11.386Z,8.60
2019-01-27T01:57:58.139Z,8.97
2019-01-27T02:00:44.754Z,8.37
2019-01-27T02:03:31.316Z,8.33
2019-01-27T02:06:17.862Z,9.17
2019-01-27T02:12:00.781Z,8.37
2019-01-27T02:14:47.196Z,9.17
2019-01-27T02:17:33.701Z,8.67
2019-01-27T02:20:20.207Z,8.60
2019-01-27T02:23:06.721Z,8.27
2019-01-27T02:25:53.240Z,8.00
2019-01-27T02:28:39.733Z,8.30
2019-01-27T02:31:19.255Z,8.10
2019-01-27T02:33:59.725Z,8.30
2019-01-27T02:36:39.665Z,7.73
2019-01-27T02:39:18.905Z,8.53
2019-01-27T02:41:58.042Z,8.07
2019-01-27T02:44:25.054Z,7.90
2019-01-27T02:47:11.785Z,7.03
2019-01-27T02:49:58.291Z,6.83
2019-01-27T02:52:44.855Z,7.80
2019-01-27T02:55:31.355Z,7.70
2019-01-27T02:58:17.849Z,7.20
2019-01-27T03:01:04.564Z,6.03
2019-01-27T03:03:51.113Z,7.17
2019-01-27T03:06:57.282Z,5.93
2019-01-27T03:09:44.430Z,6.63
2019-01-27T03:12:11.396Z,6.40
2019-01-27T03:14:38.379Z,6.10
2019-01-27T03:17:25.133Z,6.77
2019-01-27T03:20:11.621Z,6.03
2019-01-27T03:22:58.111Z,6.20
2019-01-27T03:25:44.704Z,6.90
2019-01-27T03:28:31.453Z,6.13
2019-01-27T03:31:11.202Z,5.97
2019-01-27T03:33:50.702Z,6.70
2019-01-27T03:36:30.534Z,6.47
2019-01-27T03:39:10.564Z,6.50
2019-01-27T03:41:50.765Z,6.50
2019-01-27T03:44:30.939Z,6.70
2019-01-27T03:47:11.068Z,6.70
2019-01-27T03:49:51.159Z,6.43
2019-01-27T03:52:30.930Z,6.77
2019-01-27T03:55:10.142Z,6.20
2019-01-27T03:57:50.581Z,5.80
2019-01-27T04:00:30.537Z,6.30
2019-01-27T04:03:10.323Z,6.17
2019-01-27T04:05:50.206Z,6.50
2019-01-27T04:08:29.672Z,5.97
2019-01-27T04:11:09.426Z,5.93
2019-01-27T04:13:49.625Z,6.00
2019-01-27T04:16:29.666Z,6.17
2019-01-27T04:19:08.974Z,6.00
2019-01-27T04:21:49.174Z,5.93
2019-01-27T04:24:29.069Z,5.93
2019-01-27T04:27:08.969Z,6.20
2019-01-27T04:29:48.992Z,5.90
2019-01-27T04:32:28.460Z,5.83
2019-01-27T04:35:08.285Z,5.40
2019-01-27T04:37:48.283Z,6.07
2019-01-27T04:40:28.231Z,5.73
2019-01-27T04:43:07.521Z,5.97
2019-01-27T04:45:47.484Z,5.90
2019-01-27T04:51:28.961Z,5.77
2019-01-27T04:54:09.052Z,5.43
2019-01-27T04:56:49.406Z,5.83
2019-01-27T04:59:29.398Z,5.53
2019-01-27T05:02:09.415Z,5.40
2019-01-27T05:04:49.614Z,5.37
2019-01-27T05:07:29.570Z,5.17
2019-01-27T05:10:09.544Z,5.57
2019-01-27T05:12:48.763Z,5.83
2019-01-27T05:15:29.389Z,5.30
2019-01-27T05:18:09.000Z,5.37
2019-01-27T05:20:49.417Z,5.03
2019-01-27T05:23:29.235Z,5.20
2019-01-27T05:26:09.377Z,5.40
2019-01-27T05:28:49.427Z,5.00
2019-01-27T05:31:28.830Z,4.67
2019-01-27T05:34:08.905Z,4.93
2019-01-27T05:36:48.647Z,4.80
2019-01-27T05:39:27.823Z,4.90
2019-01-27T05:42:07.956Z,4.60
2019-01-27T05:44:47.814Z,4.53
2019-01-27T05:47:27.768Z,4.57
2019-01-27T05:49:54.651Z,4.07
2019-01-27T05:52:41.142Z,4.50
2019-01-27T05:55:27.650Z,4.27
2019-01-27T05:58:14.161Z,4.13
2019-01-27T06:01:01.146Z,4.33
2019-01-27T06:03:47.800Z,4.10
2019-01-27T06:06:34.357Z,3.90
2019-01-27T06:09:21.139Z,3.77
2019-01-27T06:12:07.984Z,3.80
2019-01-27T06:14:54.471Z,3.83
2019-01-27T06:17:41.036Z,3.67
2019-01-27T06:20:27.599Z,3.50
2019-01-27T06:23:14.102Z,3.57
2019-01-27T06:26:00.535Z,3.40
2019-01-27T06:28:47.040Z,3.10
2019-01-27T06:31:26.374Z,3.57
2019-01-27T06:34:08.701Z,3.10
2019-01-27T06:36:49.107Z,3.40
2019-01-27T06:39:29.212Z,2.80
2019-01-27T06:42:08.838Z,2.90
2019-01-27T06:44:49.048Z,2.97
2019-01-27T06:47:28.944Z,2.80
2019-01-27T06:50:09.097Z,3.00
2019-01-27T06:52:48.609Z,3.17
2019-01-27T06:55:28.250Z,3.30
2019-01-27T06:58:08.275Z,3.20
2019-01-27T07:01:11.101Z,3.30
2019-01-27T07:03:57.630Z,3.03
2019-01-27T07:07:04.089Z,5.87
2019-01-27T07:10:10.543Z,7.43
2019-01-27T07:13:03.864Z,4.43
2019-01-27T07:16:10.022Z,9.33
2019-01-27T07:19:16.143Z,8.20
2019-01-27T07:22:22.708Z,4.33
2019-01-27T07:25:28.861Z,3.53
2019-01-27T07:28:34.928Z,4.10
2019-01-27T07:31:34.231Z,5.53
2019-01-27T07:34:33.435Z,5.27
2019-01-27T07:37:32.644Z,4.03
2019-01-27T07:40:31.733Z,7.50
2019-01-27T07:43:27.361Z,5.23
2019-01-27T07:46:27.065Z,4.27
2019-01-27T07:49:26.483Z,3.20
2019-01-27T07:52:18.471Z,3.50
2019-01-27T07:55:17.363Z,3.10
2019-01-27T07:58:08.269Z,3.20
2019-01-27T08:00:56.766Z,3.67
2019-01-27T08:03:58.730Z,3.43
2019-01-27T08:06:58.254Z,3.40
2019-01-27T08:09:44.679Z,3.87
2019-01-27T08:12:45.391Z,3.30
2019-01-27T08:15:44.345Z,4.40
2019-01-27T08:18:34.836Z,3.33
2019-01-27T08:21:22.453Z,4.27
2019-01-27T08:24:21.515Z,4.27
2019-01-27T08:27:23.769Z,5.07
2019-01-27T08:30:15.262Z,9.13
2019-01-27T08:33:14.383Z,6.10
2019-01-27T08:35:58.814Z,4.87
2019-01-27T08:38:31.773Z,5.43
2019-01-27T08:41:37.844Z,7.50
2019-01-27T08:44:43.941Z,4.07
2019-01-27T08:47:30.708Z,3.47
2019-01-27T08:50:17.369Z,4.80
2019-01-27T08:53:04.026Z,3.27
2019-01-27T08:55:50.424Z,3.13
2019-01-27T08:58:36.860Z,4.27
2019-01-27T09:01:43.019Z,3.60
2019-01-27T09:04:29.546Z,4.57
2019-01-27T09:07:35.634Z,5.60
2019-01-27T09:10:41.671Z,3.83
2019-01-27T09:13:47.877Z,11.43
2019-01-27T09:16:54.043Z,5.10
2019-01-27T09:20:00.237Z,4.47
2019-01-27T09:23:06.391Z,4.00
2019-01-27T09:26:12.663Z,4.10
2019-01-27T09:29:19.049Z,2.70
2019-01-27T09:32:05.627Z,3.23
2019-01-27T09:35:11.775Z,2.83
2019-01-27T09:38:17.957Z,2.50
2019-01-27T09:41:24.131Z,3.00
2019-01-27T09:44:30.714Z,2.30
2019-01-27T09:47:36.870Z,7.80
2019-01-27T09:50:43.154Z,5.23
2019-01-27T09:53:49.347Z,3.53
2019-01-27T09:56:55.540Z,6.47
2019-01-27T10:00:01.731Z,2.83
2019-01-27T10:03:07.907Z,2.80
2019-01-27T10:06:14.064Z,2.60
2019-01-27T10:09:07.860Z,2.80
2019-01-27T10:12:14.085Z,3.30
2019-01-27T10:15:20.441Z,2.87
2019-01-27T10:18:26.631Z,4.23
2019-01-27T10:21:32.687Z,3.50
2019-01-27T10:24:38.777Z,3.87
2019-01-27T10:27:45.029Z,4.30
2019-01-27T10:30:25.870Z,4.40
2019-01-27T10:33:32.314Z,4.27
2019-01-27T10:36:38.563Z,4.37
2019-01-27T10:39:30.297Z,4.20
2019-01-27T10:42:36.478Z,2.63
2019-01-27T10:45:42.933Z,3.10
2019-01-27T10:48:49.077Z,2.30
2019-01-27T10:51:35.625Z,3.20
2019-01-27T10:54:38.047Z,2.77
2019-01-27T10:57:44.240Z,3.20
2019-01-27T11:00:51.656Z,2.60
2019-01-27T11:03:57.931Z,2.57
2019-01-27T11:07:04.090Z,2.03
2019-01-27T11:10:10.624Z,2.47
2019-01-27T11:13:16.794Z,2.40
2019-01-27T11:16:23.226Z,2.40
2019-01-27T11:19:29.463Z,2.70
2019-01-27T11:22:35.883Z,2.70
2019-01-27T11:25:42.072Z,2.70
2019-01-27T11:28:48.481Z,2.23
2019-01-27T11:31:53.201Z,2.80
2019-01-27T11:34:52.568Z,8.27
2019-01-27T11:37:51.863Z,5.17
2019-01-27T11:40:51.117Z,3.07
2019-01-27T11:43:41.052Z,2.10
2019-01-27T11:46:40.324Z,2.47
2019-01-27T11:55:21.130Z,2.10
2019-01-27T11:58:01.081Z,2.70
2019-01-27T12:00:44.728Z,4.43
2019-01-27T12:03:24.241Z,2.37
2019-01-27T12:06:03.558Z,3.00
2019-01-27T12:08:43.581Z,2.65
2019-01-27T12:11:23.712Z,2.02
2019-01-27T12:14:04.205Z,2.27
2019-01-27T12:16:44.069Z,2.22
2019-01-27T12:19:24.221Z,2.05
2019-01-27T12:22:04.245Z,1.95
2019-01-27T12:24:44.376Z,2.00
2019-01-27T12:27:24.484Z,1.90
2019-01-27T12:33:16.711Z,2.10
2019-01-27T12:35:56.828Z,4.80
2019-01-27T12:38:36.745Z,2.95
2019-01-27T12:41:17.037Z,5.13
2019-01-27T12:43:57.073Z,4.60
2019-01-27T12:46:24.121Z,4.28
2019-01-27T12:49:10.558Z,2.90
2019-01-27T12:51:57.042Z,2.13
2019-01-27T12:54:43.898Z,2.30
2019-01-27T12:57:30.374Z,2.60
2019-01-27T13:00:21.721Z,1.83
2019-01-27T13:03:08.269Z,1.80
2019-01-27T13:05:35.152Z,1.77
2019-01-27T13:08:22.039Z,1.77
2019-01-27T13:11:08.495Z,1.90
2019-01-27T13:13:54.938Z,1.77
2019-01-27T13:16:41.620Z,2.10
2019-01-27T13:19:28.169Z,2.20
2019-01-27T13:22:14.962Z,2.20
2019-01-27T13:25:01.501Z,1.52
2019-01-27T13:27:48.295Z,2.90
2019-01-27T13:30:28.160Z,2.50
2019-01-27T13:32:55.057Z,2.07
2019-01-27T13:35:41.862Z,1.52
2019-01-27T13:38:28.473Z,2.35
2019-01-27T13:41:15.034Z,1.80
2019-01-27T13:44:01.538Z,2.15
2019-01-27T13:46:48.270Z,1.42
2019-01-27T13:49:34.808Z,1.87
2019-01-27T13:52:21.340Z,4.87
2019-01-27T13:55:09.729Z,2.05
2019-01-27T13:57:56.251Z,1.90
2019-01-27T14:00:43.199Z,2.62
2019-01-27T14:03:10.137Z,2.10
2019-01-27T14:05:56.929Z,2.35
2019-01-27T14:08:43.774Z,1.72
2019-01-27T14:11:30.446Z,1.90
2019-01-27T14:13:57.304Z,1.42
2019-01-27T14:16:43.844Z,1.17
2019-01-27T14:19:30.381Z,1.40
2019-01-27T14:22:17.448Z,1.20
2019-01-27T14:25:04.037Z,2.12
2019-01-27T14:27:52.087Z,1.92
2019-01-27T14:30:40.374Z,1.32
2019-01-27T14:33:26.937Z,1.35
2019-01-27T14:36:13.528Z,2.50
2019-01-27T14:38:59.995Z,0.90
2019-01-27T14:41:46.573Z,7.40
2019-01-27T14:44:13.704Z,4.62
2019-01-27T14:47:00.366Z,7.95
2019-01-27T14:49:46.929Z,12.15
2019-01-27T14:52:33.341Z,7.55
2019-01-27T14:55:19.869Z,2.60
2019-01-27T14:58:06.657Z,9.78
2019-01-27T15:00:53.313Z,1.37
2019-01-27T15:03:39.865Z,1.67
2019-01-27T15:06:26.414Z,8.18
2019-01-27T15:09:12.957Z,2.00
2019-01-27T15:11:59.512Z,1.10
2019-01-27T15:14:46.183Z,11.20
2019-01-27T15:17:33.160Z,3.35
2019-01-27T15:20:20.010Z,2.25
2019-01-27T15:23:06.525Z,1.40
2019-01-27T15:25:53.078Z,1.60
2019-01-27T15:28:39.589Z,1.40
2019-01-27T15:34:18.415Z,1.60
2019-01-27T15:36:58.724Z,1.50
2019-01-27T15:39:38.410Z,4.67
2019-01-27T15:42:18.577Z,2.37
2019-01-27T15:47:57.048Z,1.80
2019-01-27T15:50:37.056Z,1.70
2019-01-27T15:53:17.476Z,2.30
2019-01-27T15:55:57.737Z,1.70
2019-01-27T15:58:37.570Z,1.80
2019-01-27T16:01:17.629Z,1.63
2019-01-27T16:03:57.884Z,1.80
2019-01-27T16:06:37.837Z,1.70
2019-01-27T16:09:17.053Z,1.97
2019-01-27T16:11:44.060Z,1.50
2019-01-27T16:14:30.655Z,1.73
2019-01-27T16:17:17.460Z,1.70
2019-01-27T16:20:04.237Z,1.60
2019-01-27T16:26:07.987Z,1.30
2019-01-27T16:28:54.600Z,1.70
2019-01-27T16:46:30.949Z,1.80
2019-01-27T16:49:11.038Z,1.90
2019-01-27T16:51:51.345Z,1.97
2019-01-27T16:54:31.112Z,1.73
2019-01-27T16:57:11.433Z,2.20
2019-01-27T16:59:51.326Z,2.17
2019-01-27T17:02:30.980Z,3.87
2019-01-27T17:05:11.108Z,3.17
2019-01-27T17:07:38.120Z,2.53
2019-01-27T17:10:24.873Z,2.03
2019-01-27T17:13:11.453Z,2.33
2019-01-27T17:15:58.116Z,2.20
2019-01-27T17:18:46.632Z,1.80
2019-01-27T17:21:13.657Z,1.50
2019-01-27T17:24:00.088Z,1.80
2019-01-27T17:26:46.869Z,1.90
2019-01-27T17:29:33.566Z,1.93
2019-01-27T17:32:13.017Z,1.87
2019-01-27T17:34:53.888Z,1.80
2019-01-27T17:37:33.409Z,1.93
2019-01-27T17:40:13.221Z,2.40
2019-01-27T17:42:52.364Z,1.80
2019-01-27T17:45:32.793Z,1.80
2019-01-27T18:03:34.183Z,1.90
2019-01-27T18:06:22.342Z,1.90
2019-01-27T18:09:21.665Z,1.87
2019-01-27T18:12:08.189Z,1.80
2019-01-27T18:14:47.496Z,2.37
2019-01-27T18:17:27.912Z,1.90
2019-01-27T18:20:07.761Z,2.00
2019-01-27T18:22:47.097Z,1.73
2019-01-27T18:25:27.548Z,1.93
2019-01-27T18:27:54.978Z,2.17
2019-01-27T18:30:34.492Z,1.90
2019-01-27T18:33:14.657Z,2.17
2019-01-27T18:35:54.625Z,2.20
2019-01-27T18:44:34.774Z,2.10
2019-01-27T18:47:15.274Z,2.00
2019-01-27T18:49:55.339Z,2.50
2019-01-27T18:52:35.502Z,2.40
2019-01-27T18:55:34.844Z,2.43
2019-01-27T18:58:40.057Z,1.97
2019-01-27T19:01:32.939Z,2.07
2019-01-27T19:04:24.807Z,2.00
2019-01-27T19:07:11.515Z,2.17
2019-01-27T19:10:17.709Z,1.77
2019-01-27T19:13:24.309Z,1.90
2019-01-27T19:16:16.743Z,1.87
2019-01-27T19:19:23.302Z,2.00
2019-01-27T19:22:29.491Z,1.90
2019-01-27T19:25:35.660Z,1.90
2019-01-27T19:28:41.804Z,2.10
2019-01-27T19:31:30.292Z,2.10
2019-01-27T19:34:29.508Z,1.90
2019-01-27T19:37:29.282Z,1.80
2019-01-27T19:40:19.275Z,1.80
2019-01-27T19:43:05.409Z,1.90
2019-01-27T19:46:05.457Z,2.93
2019-01-27T19:49:04.680Z,22.83
2019-01-27T19:52:03.663Z,2.77
2019-01-27T19:55:02.707Z,3.73
2019-01-27T19:57:50.301Z,2.40
2019-01-27T20:00:48.406Z,1.70
2019-01-27T20:03:34.956Z,2.37
2019-01-27T20:06:41.129Z,2.00
2019-01-27T20:09:47.296Z,2.00
2019-01-27T20:12:33.979Z,2.40
2019-01-27T20:15:40.417Z,2.40
2019-01-27T20:18:46.566Z,2.10
2019-01-27T20:21:53.530Z,2.30
2019-01-27T20:25:00.050Z,1.80
2019-01-27T20:27:46.558Z,2.20
2019-01-27T20:30:33.598Z,1.80
2019-01-27T20:33:32.928Z,1.53
2019-01-27T20:36:32.411Z,3.83
2019-01-27T20:39:31.236Z,2.37
2019-01-27T20:42:30.484Z,1.83
2019-01-27T20:45:18.775Z,7.63
2019-01-27T20:48:13.311Z,2.63
2019-01-27T20:51:02.798Z,2.10
2019-01-27T20:54:01.937Z,7.30
2019-01-27T20:56:49.882Z,2.13
2019-01-27T20:59:49.585Z,2.30
2019-01-27T21:02:54.821Z,3.67
2019-01-27T21:05:43.675Z,1.90
2019-01-27T21:08:43.877Z,1.90
2019-01-27T21:11:43.622Z,2.10
2019-01-27T21:14:30.009Z,2.33
2019-01-27T21:17:15.503Z,1.63
2019-01-27T21:19:59.333Z,5.40
2019-01-27T21:25:38.265Z,1.50
2019-01-27T21:28:18.789Z,2.00
2019-01-27T21:30:58.464Z,1.80
2019-01-27T21:33:38.390Z,2.00
2019-01-27T21:36:18.733Z,2.00
2019-01-27T22:44:59.977Z,1.57
2019-01-27T22:47:39.767Z,1.60
2019-01-27T22:50:20.048Z,1.40
2019-01-27T22:53:00.023Z,1.10
2019-01-27T22:55:39.616Z,1.40
2019-01-27T22:58:06.594Z,1.10
2019-01-27T23:01:16.969Z,1.10
2019-01-27T23:04:04.105Z,1.20
2019-01-27T23:06:50.929Z,1.10
2019-01-27T23:09:37.639Z,1.30
2019-01-27T23:12:24.449Z,1.13
2019-01-27T23:15:11.127Z,1.33
2019-01-27T23:17:57.810Z,1.27
2019-01-27T23:20:44.405Z,1.90
2019-01-27T23:23:11.228Z,1.50
2019-01-27T23:25:57.884Z,2.17
2019-01-27T23:28:44.637Z,1.80
2019-01-27T23:31:24.277Z,2.30
2019-01-27T23:34:04.267Z,2.20
2019-01-27T23:36:44.228Z,2.50
2019-01-27T23:39:23.956Z,2.20
2019-01-27T23:42:04.121Z,1.93
2019-01-27T23:44:44.250Z,2.43
2019-01-27T23:47:24.305Z,2.70
2019-01-27T23:50:04.133Z,2.20
2019-01-27T23:52:43.652Z,2.40
2019-01-27T23:58:05.854Z,2.50
